岩国 の空港の天気 - METARとTAF

岩国飛行場 ( RJOI / IWK ) - 山口県岩国市
飛行場実況気象(Metar)
観測時間03/29 05:55 JST (03/28 20:55 UTC)
風向・風速西北西 2m/s
視程10km以上
天気現象
少しの雲 雲底高度 1370m
全天の8割程度の雲 雲底高度 2130m
全天を覆う雲 雲底高度 3660m
気温7.8℃
湿度68%
気圧1024.7hPa
METARRJOI 282055Z 30004KT 9999 FEW045 BKN070 OVC120 08/02 A3026 RMK RAB11E40 SLP247 P0000 60000 T00780022 51020
過去の天気等 Google飛行場航空写真 Wunderground天気予報

過去48時間のMETAR

飛行場予報(TAF)
発表時間: -
29日11時 JST から
風向・風速南西 3m/s
視程10km以上
全天の8割程度の雲 雲底高度 1,830m
29日20時 JST から
風向・風速不定 3m/s
視程10km以上
全天の8割程度の雲 雲底高度 610m
TAF RJOI 2821/2921 30006KT 9999 FEW030 BKN080 OVC130 620808 QNH3021INS
FM290200 22006KT 9999 BKN060 620604 QNH3016INS
FM291100 VRB05KT 9999 BKN020 620402 QNH3010INS T11/2906Z T07/2921Z
日本の空港のMETAR・TAFへのリンク

RJTT 東京国際空港
RJAA 新東京国際空港
RJBB 関西国際空港
RJOO 大阪空港
RJGG 中部国際空港
RJCC 新千歳空港
RJFF 福岡空港
ROAH 那覇空港


RJEC 旭川空港
RJCH 函館空港
RJCK 釧路空港
RJCM 女満別空港
RJCB 帯広空港
RJSA 青森空港
RJSS 仙台空港
RJSK 秋田空港
RJSF 福島空港
RJAH 茨城空港
RJSN 新潟空港
RJNT 富山空港
RJNK 小松飛行場
RJNS 静岡空港
RJOH 美保飛行場
RJOC 出雲空港
RJOB 岡山空港
RJOA 広島空港
RJOI 岩国飛行場
RJOT 高松空港
RJOM 松山空港
RJOK 高知空港
RJFR 北九州空港
RJFT 熊本空港
RJFU 長崎空港
RJFS 佐賀空港
RJFO 大分空港
RJFM 宮崎空港
RJFK 鹿児島空港
ROIG 石垣島空港
RJTY 横田飛行場
ROTM 普天間飛行場
RODN 嘉手納飛行場